NCAR-RAP Real-Time Weather Data

Output produced by METARs form (21 April 2018  09:48 UTC)
found at http://weather.rap.ucar.edu/surface/
 
Conditions at: KLAL observed 21 April 2018  09:35 UTC
Temperature: 18.0°C (64°F)
Dewpoint: 18.0°C (64°F) [RH = 100%]
Pressure (altimeter): 30.11 inches Hg (1019.7 mb)
Winds: from the ENE (60 degrees) at 5 MPH (4 knots; 2.1 m/s)
Visibility: 7 miles (11 km)
Ceiling: 2100 feet AGL
Clouds: broken clouds at 2100 feet AGL
broken clouds at 3600 feet AGL
Present Weather: automated observation with no human augmentation;
there may or may not be significant weather present at this time
KLAL 210935Z AUTO 06004KT 7SM BKN021 BKN036 18/18 A3011 RMK AO2

Conditions at: KLAL observed 21 April 2018  08:55 UTC
Temperature: 18.0°C (64°F)
Dewpoint: 17.0°C (63°F) [RH = 94%]
Pressure (altimeter): 30.12 inches Hg (1020.1 mb)
Winds: from the NE (40 degrees) at 7 MPH (6 knots; 3.1 m/s)
Visibility: 7 miles (11 km)
Ceiling: 2500 feet AGL
Clouds: scattered clouds at 700 feet AGL
broken clouds at 2500 feet AGL
broken clouds at 3100 feet AGL
Present Weather: automated observation with no human augmentation;
there may or may not be significant weather present at this time
KLAL 210855Z AUTO 04006KT 7SM SCT007 BKN025 BKN031 18/17 A3012 RMK AO2

Conditions at: KLAL observed 21 April 2018  08:15 UTC
Temperature: 18.0°C (64°F)
Dewpoint: 17.0°C (63°F) [RH = 94%]
Pressure (altimeter): 30.13 inches Hg (1020.4 mb)
Winds: from the NNE (30 degrees) at 7 MPH (6 knots; 3.1 m/s)
Visibility: 7 miles (11 km)
Ceiling: 700 feet AGL
Clouds: broken clouds at 700 feet AGL
broken clouds at 2200 feet AGL
Present Weather: automated observation with no human augmentation;
there may or may not be significant weather present at this time
KLAL 210815Z AUTO 03006KT 7SM BKN007 BKN022 18/17 A3013 RMK AO2

Conditions at: KLAL observed 21 April 2018  07:35 UTC
Temperature: 18.0°C (64°F)
Dewpoint: 17.0°C (63°F) [RH = 94%]
Pressure (altimeter): 30.12 inches Hg (1020.1 mb)
Winds: from the NE (50 degrees) at 6 MPH (5 knots; 2.6 m/s)
Visibility: 5 miles (8 km)
Ceiling: 2600 feet AGL
Clouds: scattered clouds at 800 feet AGL
broken clouds at 2600 feet AGL
overcast cloud deck at 4600 feet AGL
Present Weather: BR  (mist)
KLAL 210735Z AUTO 05005KT 5SM BR SCT008 BKN026 OVC046 18/17 A3012 RMK AO2

Conditions at: KLAL observed 21 April 2018  07:15 UTC
Temperature: 18.0°C (64°F)
Dewpoint: 17.0°C (63°F) [RH = 94%]
Pressure (altimeter): 30.13 inches Hg (1020.4 mb)
Winds: from the NE (40 degrees) at 6 MPH (5 knots; 2.6 m/s)
Visibility: 5 miles (8 km)
Ceiling: 3000 feet AGL
Clouds: scattered clouds at 800 feet AGL
broken clouds at 3000 feet AGL
overcast cloud deck at 5000 feet AGL
Present Weather: BR  (mist)
KLAL 210715Z AUTO 04005KT 5SM BR SCT008 BKN030 OVC050 18/17 A3013 RMK AO2

Conditions at: KLAL observed 21 April 2018  06:55 UTC
Temperature: 18.0°C (64°F)
Dewpoint: 17.0°C (63°F) [RH = 94%]
Pressure (altimeter): 30.13 inches Hg (1020.4 mb)
Winds: from the NE (40 degrees) at 8 MPH (7 knots; 3.6 m/s)
Visibility: 5 miles (8 km)
Ceiling: 5000 feet AGL
Clouds: scattered clouds at 2200 feet AGL
broken clouds at 5000 feet AGL
overcast cloud deck at 6000 feet AGL
Present Weather: BR  (mist)
KLAL 210655Z AUTO 04007KT 5SM BR SCT022 BKN050 OVC060 18/17 A3013 RMK AO2

Conditions at: KLAL observed 21 April 2018  06:35 UTC
Temperature: 18.0°C (64°F)
Dewpoint: 17.0°C (63°F) [RH = 94%]
Pressure (altimeter): 30.14 inches Hg (1020.7 mb)
Winds: from the NNE (30 degrees) at 7 MPH (6 knots; 3.1 m/s)
Visibility: 5 miles (8 km)
Ceiling: 5000 feet AGL
Clouds: scattered clouds at 900 feet AGL
scattered clouds at 1700 feet AGL
overcast cloud deck at 5000 feet AGL
Present Weather: BR  (mist)
KLAL 210635Z AUTO 03006KT 5SM BR SCT009 SCT017 OVC050 18/17 A3014 RMK AO2

Conditions at: KLAL observed 21 April 2018  06:15 UTC
Temperature: 18.0°C (64°F)
Dewpoint: 17.0°C (63°F) [RH = 94%]
Pressure (altimeter): 30.14 inches Hg (1020.7 mb)
Winds: from the NNE (20 degrees) at 9 MPH (8 knots; 4.2 m/s)
Visibility: 7 miles (11 km)
Ceiling: 1100 feet AGL
Clouds: broken clouds at 1100 feet AGL
broken clouds at 1500 feet AGL
overcast cloud deck at 5000 feet AGL
Present Weather: automated observation with no human augmentation;
there may or may not be significant weather present at this time
KLAL 210615Z AUTO 02008KT 7SM BKN011 BKN015 OVC050 18/17 A3014 RMK AO2

Conditions at: KLAL observed 21 April 2018  05:15 UTC
Temperature: 19.0°C (66°F)
Dewpoint: 17.0°C (63°F) [RH = 88%]
Pressure (altimeter): 30.16 inches Hg (1021.4 mb)
Winds: from the NE (50 degrees) at 10 MPH (9 knots; 4.7 m/s)
Visibility: 7 miles (11 km)
Ceiling: 1100 feet AGL
Clouds: overcast cloud deck at 1100 feet AGL
Present Weather: automated observation with no human augmentation;
there may or may not be significant weather present at this time
KLAL 210515Z AUTO 05009KT 7SM OVC011 19/17 A3016 RMK AO2

Conditions at: KLAL observed 21 April 2018  04:15 UTC
Temperature: 19.0°C (66°F)
Dewpoint: 17.0°C (63°F) [RH = 88%]
Pressure (altimeter): 30.16 inches Hg (1021.4 mb)
Winds: from the NE (50 degrees) at 14 MPH (12 knots; 6.2 m/s)
Visibility: 10 or more miles (16+ km)
Ceiling: 1100 feet AGL
Clouds: overcast cloud deck at 1100 feet AGL
Present Weather: automated observation with no human augmentation;
there may or may not be significant weather present at this time
KLAL 210415Z AUTO 05012KT 10SM OVC011 19/17 A3016 RMK AO2

Conditions at: KLAL observed 21 April 2018  03:35 UTC
Temperature: 19.0°C (66°F)
Dewpoint: 17.0°C (63°F) [RH = 88%]
Pressure (altimeter): 30.16 inches Hg (1021.4 mb)
Winds: from the NE (40 degrees) at 12 MPH (10 knots; 5.2 m/s)
Visibility: 10 or more miles (16+ km)
Ceiling: 1300 feet AGL
Clouds: overcast cloud deck at 1300 feet AGL
Present Weather: automated observation with no human augmentation;
there may or may not be significant weather present at this time
KLAL 210335Z AUTO 04010KT 10SM OVC013 19/17 A3016 RMK AO2

Conditions at: KLAL observed 21 April 2018  01:50 UTC
Temperature: 21.0°C (70°F)
Dewpoint: 17.0°C (63°F) [RH = 78%]
Pressure (altimeter): 30.13 inches Hg (1020.4 mb)
Winds: from the NNE (30 degrees) at 12 MPH (10 knots; 5.2 m/s)
Visibility: 10 or more miles (16+ km)
Ceiling: at least 12,000 feet AGL
Clouds: clear skies
Present Weather: no significant weather observed at this time
KLAL 210150Z 03010KT 10SM SKC 21/17 A3013

Conditions at: KLAL observed 21 April 2018  00:50 UTC
Temperature: 22.0°C (72°F)
Dewpoint: 18.0°C (64°F) [RH = 78%]
Pressure (altimeter): 30.12 inches Hg (1020.1 mb)
Winds: from the NNE (30 degrees) at 16 MPH (14 knots; 7.3 m/s)
gusting to 23 MPH (20 knots; 10.4 m/s)
Visibility: 10 or more miles (16+ km)
Ceiling: at least 12,000 feet AGL
Clouds: clear skies
Present Weather: no significant weather observed at this time
KLAL 210050Z 03014G20KT 10SM SKC 22/18 A3012

Conditions at: KLAL observed 20 April 2018  23:50 UTC
Temperature: 24.0°C (75°F)
Dewpoint: 18.0°C (64°F) [RH = 69%]
Pressure (altimeter): 30.09 inches Hg (1019.0 mb)
Winds: from the NNE (30 degrees) at 13 MPH (11 knots; 5.7 m/s)
Visibility: 10 or more miles (16+ km)
Ceiling: at least 12,000 feet AGL
Clouds: clear skies
Present Weather: no significant weather observed at this time
KLAL 202350Z 03011KT 10SM SKC 24/18 A3009

Conditions at: KLAL observed 20 April 2018  22:49 UTC
Temperature: 27.0°C (81°F)
Dewpoint: 18.0°C (64°F) [RH = 58%]
Pressure (altimeter): 30.09 inches Hg (1019.0 mb)
Winds: from the NNE (20 degrees) at 10 MPH (9 knots; 4.7 m/s)
Visibility: 10 or more miles (16+ km)
Ceiling: at least 12,000 feet AGL
Clouds: scattered clouds at 4100 feet AGL
Present Weather: no significant weather observed at this time
KLAL 202249Z 02009KT 10SM SCT041 27/18 A3009

Conditions at: KLAL observed 20 April 2018  21:45 UTC
Temperature: 28.0°C (82°F)
Dewpoint: 14.0°C (57°F) [RH = 42%]
Pressure (altimeter): 30.08 inches Hg (1018.7 mb)
Winds: from the NNE (30 degrees) at 7 MPH (6 knots; 3.1 m/s)
Visibility: 10 or more miles (16+ km)
Ceiling: at least 12,000 feet AGL
Clouds: scattered clouds at 5500 feet AGL
Present Weather: no significant weather observed at this time
KLAL 202145Z 03006KT 10SM SCT055 28/14 A3008

Conditions at: KLAL observed 20 April 2018  20:45 UTC
Temperature: 28.0°C (82°F)
Dewpoint: 14.0°C (57°F) [RH = 42%]
Pressure (altimeter): 30.08 inches Hg (1018.7 mb)
Winds: from the E (90 degrees) at 3 MPH (3 knots; 1.6 m/s)
Visibility: 10 or more miles (16+ km)
Ceiling: at least 12,000 feet AGL
Clouds: scattered clouds at 5500 feet AGL
Present Weather: no significant weather observed at this time
KLAL 202045Z 09003KT 10SM SCT055 28/14 A3008

Conditions at: KLAL observed 20 April 2018  19:53 UTC
Temperature: 28.0°C (82°F)
Dewpoint: 14.0°C (57°F) [RH = 42%]
Pressure (altimeter): 30.10 inches Hg (1019.4 mb)
Winds: calm
Visibility: 10 or more miles (16+ km)
Ceiling: 4800 feet AGL
Clouds: broken clouds at 4800 feet AGL
Present Weather: no significant weather observed at this time
KLAL 201953Z 00000KT 10SM BKN048 28/14 A3010

Conditions at: KLAL observed 20 April 2018  18:50 UTC
Temperature: 27.0°C (81°F)
Dewpoint: 14.0°C (57°F) [RH = 45%]
Pressure (altimeter): 30.12 inches Hg (1020.1 mb)
Winds: calm
Visibility: 10 or more miles (16+ km)
Ceiling: 4900 feet AGL
Clouds: broken clouds at 4900 feet AGL
Present Weather: no significant weather observed at this time
KLAL 201850Z 00000KT 10SM BKN049 27/14 A3012

Conditions at: KLAL observed 20 April 2018  17:50 UTC
Temperature: 27.0°C (81°F)
Dewpoint: 17.0°C (63°F) [RH = 54%]
Pressure (altimeter): 30.13 inches Hg (1020.4 mb)
Winds: calm
Visibility: 10 or more miles (16+ km)
Ceiling: 4500 feet AGL
Clouds: broken clouds at 4500 feet AGL
Present Weather: no significant weather observed at this time
KLAL 201750Z 00000KT 10SM BKN045 27/17 A3013

Conditions at: KLAL observed 20 April 2018  16:50 UTC
Temperature: 25.0°C (77°F)
Dewpoint: 17.0°C (63°F) [RH = 61%]
Pressure (altimeter): 30.14 inches Hg (1020.7 mb)
Winds: calm
Visibility: 10 or more miles (16+ km)
Ceiling: 3500 feet AGL
Clouds: broken clouds at 3500 feet AGL
Present Weather: no significant weather observed at this time
KLAL 201650Z 00000KT 10SM BKN035 25/17 A3014

Conditions at: KLAL observed 20 April 2018  15:50 UTC
Temperature: 24.0°C (75°F)
Dewpoint: 16.0°C (61°F) [RH = 61%]
Pressure (altimeter): 30.15 inches Hg (1021.1 mb)
Winds: from the NE (40 degrees) at 5 MPH (4 knots; 2.1 m/s)
Visibility: 10 or more miles (16+ km)
Ceiling: 3100 feet AGL
Clouds: broken clouds at 3100 feet AGL
Present Weather: no significant weather observed at this time
KLAL 201550Z 04004KT 10SM BKN031 24/16 A3015

Conditions at: KLAL observed 20 April 2018  14:50 UTC
Temperature: 24.0°C (75°F)
Dewpoint: 17.0°C (63°F) [RH = 65%]
Pressure (altimeter): 30.15 inches Hg (1021.1 mb)
Winds: from the E (80 degrees) at 5 MPH (4 knots; 2.1 m/s)
Visibility: 10 or more miles (16+ km)
Ceiling: 2500 feet AGL
Clouds: broken clouds at 2500 feet AGL
Present Weather: no significant weather observed at this time
KLAL 201450Z 08004KT 10SM BKN025 24/17 A3015

Conditions at: KLAL observed 20 April 2018  13:50 UTC
Temperature: 21.0°C (70°F)
Dewpoint: 19.0°C (66°F) [RH = 88%]
Pressure (altimeter): 30.14 inches Hg (1020.7 mb)
Winds: calm
Visibility: 10 or more miles (16+ km)
Ceiling: at least 12,000 feet AGL
Clouds: scattered clouds at 2600 feet AGL
Present Weather: no significant weather observed at this time
KLAL 201350Z 00000KT 10SM SCT026 21/19 A3014

Conditions at: KLAL observed 20 April 2018  12:50 UTC
Temperature: 18.0°C (64°F)
Dewpoint: 18.0°C (64°F) [RH = 100%]
Pressure (altimeter): 30.14 inches Hg (1020.7 mb)
Winds: calm
Visibility: 5 miles (8 km)
Ceiling: 2600 feet AGL
Clouds: broken clouds at 2600 feet AGL
Present Weather: HZ  (haze)
KLAL 201250Z 00000KT 5SM HZ BKN026 18/18 A3014

Conditions at: KLAL observed 20 April 2018  11:50 UTC
Temperature: 14.0°C (57°F)
Dewpoint: 14.0°C (57°F) [RH = 100%]
Pressure (altimeter): 30.13 inches Hg (1020.4 mb)
Winds: calm
Visibility: 3 miles (5 km)
Ceiling: at least 12,000 feet AGL
Clouds: scattered clouds at 200 feet AGL
Present Weather: BR  (mist)
KLAL 201150Z 00000KT 3SM BR SCT002 14/14 A3013 RMK ESTIMATED SURFACE VSBY 1/2 SM

Conditions at: KLAL observed 20 April 2018  10:50 UTC
Temperature: 13.0°C (55°F)
Dewpoint: 13.0°C (55°F) [RH = 100%]
Pressure (altimeter): 30.09 inches Hg (1019.0 mb)
Winds: calm
Visibility: 3 miles (5 km)
Ceiling: at least 12,000 feet AGL
Clouds: scattered clouds at 2000 feet AGL
Present Weather: BR FG  (mist, fog)
KLAL 201050Z 00000KT 3SM BRFG SCT020 13/13 A3009

Conditions at: KLAL observed 20 April 2018  09:50 UTC
Temperature: 14.0°C (57°F)
Dewpoint: 14.0°C (57°F) [RH = 100%]
Pressure (altimeter): 30.08 inches Hg (1018.7 mb)
Winds: calm
Visibility: 4 miles (6 km)
Ceiling: 200 feet AGL
Clouds: broken clouds at 200 feet AGL
Present Weather: BR  (mist)
KLAL 200950Z 00000KT 4SM BR BKN002 14/14 A3008